createdAt,value
2022-11-06T00:01:16.634Z,5.88
2022-11-06T00:03:43.827Z,5.94
2022-11-06T00:06:13.755Z,5.98
2022-11-06T00:08:40.734Z,6.07
2022-11-06T00:11:14.964Z,6.15
2022-11-06T00:13:45.014Z,6.23
2022-11-06T00:16:13.698Z,6.29
2022-11-06T00:18:42.185Z,6.46
2022-11-06T00:21:10.819Z,6.51
2022-11-06T00:23:39.033Z,6.47
2022-11-06T00:26:07.658Z,6.60
2022-11-06T00:28:35.413Z,6.72
2022-11-06T00:31:05.697Z,6.77
2022-11-06T00:33:33.197Z,6.75
2022-11-06T00:36:02.673Z,6.70
2022-11-06T00:38:29.396Z,6.67
2022-11-06T00:40:56.211Z,6.68
2022-11-06T00:43:23.164Z,6.57
2022-11-06T00:45:50.137Z,6.26
2022-11-06T00:48:18.417Z,5.96
2022-11-06T00:50:45.200Z,5.98
2022-11-06T00:53:11.913Z,6.02
2022-11-06T00:55:38.869Z,6.13
2022-11-06T00:58:05.583Z,6.23
2022-11-06T01:00:32.299Z,6.28
2022-11-06T01:02:59.144Z,5.87
2022-11-06T01:05:27.563Z,5.55
2022-11-06T01:07:54.333Z,5.42
2022-11-06T01:10:21.296Z,5.26
2022-11-06T01:12:48.782Z,5.20
2022-11-06T01:15:15.952Z,5.29
2022-11-06T01:17:46.261Z,5.38
2022-11-06T01:20:13.639Z,5.48
2022-11-06T01:22:45.017Z,5.51
2022-11-06T01:25:12.165Z,5.47
2022-11-06T01:27:38.878Z,5.28
2022-11-06T01:30:07.967Z,5.26
2022-11-06T01:32:34.716Z,5.23
2022-11-06T01:35:01.683Z,5.39
2022-11-06T01:37:28.465Z,5.50
2022-11-06T01:39:56.553Z,5.58
2022-11-06T01:42:23.254Z,5.57
2022-11-06T01:45:25.409Z,5.37
2022-11-06T01:47:52.371Z,5.33
2022-11-06T01:50:19.826Z,5.39
2022-11-06T01:52:50.250Z,5.41
2022-11-06T01:55:25.375Z,5.49
2022-11-06T01:57:55.098Z,5.41
2022-11-06T02:00:21.945Z,5.40
2022-11-06T02:02:51.147Z,5.48
2022-11-06T02:05:18.289Z,5.48
2022-11-06T02:07:45.876Z,5.50
2022-11-06T02:10:13.259Z,5.40
2022-11-06T02:12:54.467Z,5.23
2022-11-06T02:15:36.730Z,5.38
2022-11-06T02:18:24.101Z,5.37
2022-11-06T02:21:19.343Z,5.13
2022-11-06T02:24:13.290Z,4.89
2022-11-06T02:27:04.845Z,4.75
2022-11-06T02:29:42.106Z,4.70
2022-11-06T02:32:17.378Z,4.79
2022-11-06T02:34:48.650Z,4.65
2022-11-06T02:37:21.317Z,4.61
2022-11-06T02:39:53.024Z,4.56
2022-11-06T02:42:26.096Z,4.71
2022-11-06T02:44:57.141Z,4.87
2022-11-06T02:47:29.063Z,4.94
2022-11-06T02:50:04.912Z,4.99
2022-11-06T02:52:40.004Z,5.19
2022-11-06T02:55:14.115Z,5.22
2022-11-06T02:57:49.891Z,5.29
2022-11-06T03:00:18.039Z,5.21
2022-11-06T03:02:53.518Z,5.24
2022-11-06T03:05:30.911Z,5.30
2022-11-06T03:08:10.065Z,5.35
2022-11-06T03:10:46.308Z,5.31
2022-11-06T03:13:22.092Z,5.29
2022-11-06T03:16:02.772Z,5.30
2022-11-06T03:18:39.003Z,5.30
2022-11-06T03:21:14.640Z,5.34
2022-11-06T03:23:50.338Z,5.32
2022-11-06T03:26:24.891Z,5.33
2022-11-06T03:29:00.182Z,5.28
2022-11-06T03:31:33.656Z,5.21
2022-11-06T03:34:08.212Z,5.25
2022-11-06T03:36:42.521Z,5.26
2022-11-06T03:39:19.258Z,5.37
2022-11-06T03:41:53.959Z,5.48
2022-11-06T03:44:28.029Z,5.57
2022-11-06T03:47:08.881Z,5.62
2022-11-06T03:49:41.207Z,5.68
2022-11-06T03:52:17.372Z,5.39
2022-11-06T03:54:52.717Z,5.19
2022-11-06T03:57:27.155Z,5.20
2022-11-06T04:00:03.750Z,5.33
2022-11-06T04:02:45.255Z,5.40
2022-11-06T04:05:20.555Z,5.46
2022-11-06T04:07:55.020Z,5.51
2022-11-06T04:10:22.254Z,5.54
2022-11-06T04:12:52.307Z,5.55
2022-11-06T04:15:22.791Z,5.56
2022-11-06T04:17:49.562Z,5.56
2022-11-06T04:20:22.176Z,5.48
2022-11-06T04:23:01.321Z,5.37
2022-11-06T04:25:51.875Z,5.41
2022-11-06T04:28:36.206Z,5.36
2022-11-06T04:31:18.194Z,5.35
2022-11-06T04:33:57.124Z,5.26
2022-11-06T04:36:37.408Z,5.23
2022-11-06T04:39:16.070Z,5.03
2022-11-06T04:41:56.285Z,5.13
2022-11-06T04:44:31.604Z,5.03
2022-11-06T04:47:08.594Z,4.96
2022-11-06T04:49:40.484Z,4.79
2022-11-06T04:52:14.387Z,4.81
2022-11-06T04:54:42.158Z,4.88
2022-11-06T04:57:09.016Z,4.95
2022-11-06T04:59:36.833Z,5.00
2022-11-06T05:02:06.675Z,5.06
2022-11-06T05:04:34.041Z,5.10
2022-11-06T05:07:00.837Z,5.12
2022-11-06T05:09:27.553Z,5.14
2022-11-06T05:11:54.355Z,5.18
2022-11-06T05:14:21.147Z,5.20
2022-11-06T05:16:48.141Z,5.21
2022-11-06T05:19:16.399Z,5.20
2022-11-06T05:21:43.774Z,5.21
2022-11-06T05:24:10.606Z,5.04
2022-11-06T05:26:37.803Z,5.00
2022-11-06T05:29:04.781Z,4.99
2022-11-06T05:31:31.822Z,4.53
2022-11-06T05:33:59.597Z,4.29
2022-11-06T05:36:28.119Z,4.14
2022-11-06T05:38:54.841Z,3.92
2022-11-06T05:41:21.812Z,3.75
2022-11-06T05:43:48.695Z,3.81
2022-11-06T05:46:42.836Z,3.83
2022-11-06T05:49:02.712Z,3.75
2022-11-06T05:51:30.779Z,3.78
2022-11-06T05:53:57.748Z,3.87
2022-11-06T05:56:24.479Z,3.95
2022-11-06T05:58:51.165Z,4.06
2022-11-06T06:01:17.922Z,4.21
2022-11-06T06:03:44.791Z,4.42
2022-11-06T06:06:11.601Z,4.53
2022-11-06T06:08:39.836Z,4.58
2022-11-06T06:11:07.499Z,4.61
2022-11-06T06:13:36.027Z,4.64
2022-11-06T06:16:03.714Z,4.63
2022-11-06T06:18:31.027Z,4.58
2022-11-06T06:20:58.028Z,4.36
2022-11-06T06:23:24.883Z,4.08
2022-11-06T06:25:54.093Z,3.88
2022-11-06T06:28:20.835Z,3.88
2022-11-06T06:30:47.981Z,3.92
2022-11-06T06:33:14.674Z,3.90
2022-11-06T06:35:41.636Z,3.90
2022-11-06T06:38:08.496Z,4.04
2022-11-06T06:40:35.234Z,4.19
2022-11-06T06:43:03.575Z,4.47
2022-11-06T06:45:30.421Z,4.63
2022-11-06T06:48:02.679Z,5.06
2022-11-06T06:50:29.585Z,5.00
2022-11-06T06:52:56.973Z,5.08
2022-11-06T06:55:24.514Z,5.32
2022-11-06T06:57:56.982Z,5.46
2022-11-06T07:00:26.416Z,5.45
2022-11-06T07:02:53.186Z,5.46
2022-11-06T07:05:20.739Z,5.66
2022-11-06T07:07:47.828Z,5.67
2022-11-06T07:10:14.860Z,5.96
2022-11-06T07:12:41.697Z,6.41
2022-11-06T07:15:10.322Z,6.20
2022-11-06T07:17:42.141Z,6.13
2022-11-06T07:20:12.251Z,6.44
2022-11-06T07:22:39.358Z,7.03
2022-11-06T07:25:07.015Z,7.69
2022-11-06T07:32:23.008Z,8.61
2022-11-06T07:34:51.306Z,8.24
2022-11-06T07:37:22.269Z,8.57
2022-11-06T07:39:49.066Z,9.18
2022-11-06T07:42:16.192Z,9.36
2022-11-06T07:44:56.259Z,9.74
2022-11-06T07:47:23.440Z,10.23
2022-11-06T07:49:51.823Z,10.19
2022-11-06T07:52:19.177Z,10.17
2022-11-06T07:54:45.917Z,10.13
2022-11-06T07:57:12.827Z,9.97
2022-11-06T07:59:41.351Z,10.38
2022-11-06T08:02:11.735Z,10.38
2022-11-06T08:04:39.232Z,10.78
2022-11-06T08:07:07.464Z,11.09
2022-11-06T08:09:34.490Z,11.44
2022-11-06T08:12:02.214Z,11.72
2022-11-06T08:14:54.188Z,11.93
2022-11-06T08:17:19.221Z,12.56
2022-11-06T08:19:46.303Z,12.95
2022-11-06T08:22:35.501Z,13.70
2022-11-06T08:25:04.609Z,14.11
2022-11-06T08:27:31.911Z,14.55
2022-11-06T08:30:00.072Z,14.69
2022-11-06T08:32:28.186Z,14.95
2022-11-06T08:34:54.876Z,15.20
2022-11-06T08:37:21.814Z,15.84
2022-11-06T08:40:13.671Z,16.64
2022-11-06T08:42:40.970Z,16.93
2022-11-06T08:48:14.926Z,15.95
2022-11-06T08:50:49.388Z,15.87
2022-11-06T08:53:17.263Z,15.53
2022-11-06T08:55:46.097Z,16.25
2022-11-06T08:58:13.537Z,17.00
2022-11-06T09:00:40.854Z,16.83
2022-11-06T09:03:16.004Z,16.73
2022-11-06T09:05:46.657Z,17.41
2022-11-06T09:08:19.366Z,18.10
2022-11-06T09:10:58.658Z,18.64
2022-11-06T09:13:28.149Z,19.01
2022-11-06T09:15:54.988Z,19.21
2022-11-06T09:18:21.768Z,19.21
2022-11-06T09:20:48.606Z,19.37
2022-11-06T09:23:15.736Z,19.89
2022-11-06T09:25:42.987Z,20.03
2022-11-06T09:28:11.364Z,19.89
2022-11-06T09:30:38.166Z,19.19
2022-11-06T09:33:09.192Z,18.55
2022-11-06T09:35:39.096Z,18.72
2022-11-06T09:38:11.693Z,18.77
2022-11-06T09:40:47.332Z,19.11
2022-11-06T09:44:03.591Z,19.48
2022-11-06T09:46:24.552Z,19.15
2022-11-06T09:49:01.035Z,17.92
2022-11-06T09:51:39.173Z,18.62
2022-11-06T09:54:19.904Z,18.84
2022-11-06T09:56:54.367Z,18.68
2022-11-06T09:59:23.161Z,16.64
2022-11-06T10:01:54.960Z,16.08
2022-11-06T10:04:40.635Z,17.37
2022-11-06T10:07:24.795Z,16.52
2022-11-06T10:09:51.551Z,16.87
2022-11-06T10:12:34.210Z,18.01
2022-11-06T10:15:20.243Z,18.75
2022-11-06T10:18:00.854Z,18.32
2022-11-06T10:20:34.989Z,18.53
2022-11-06T10:23:05.698Z,16.49
2022-11-06T10:25:50.977Z,18.10
2022-11-06T10:28:51.995Z,18.40
2022-11-06T10:31:36.785Z,16.78
2022-11-06T10:34:13.427Z,17.30
2022-11-06T10:36:50.177Z,16.77
2022-11-06T10:39:23.165Z,16.94
2022-11-06T10:41:56.840Z,17.42
2022-11-06T10:44:33.518Z,15.25
2022-11-06T10:47:11.214Z,15.48
2022-11-06T10:49:46.885Z,16.09
2022-11-06T10:52:48.506Z,16.30
2022-11-06T10:55:45.361Z,15.86
2022-11-06T10:58:17.461Z,15.28
2022-11-06T11:00:44.717Z,15.05
2022-11-06T11:03:47.351Z,13.33
2022-11-06T11:06:42.423Z,12.32
2022-11-06T11:09:33.452Z,12.51
2022-11-06T11:12:01.147Z,12.68
2022-11-06T11:14:31.539Z,13.11
2022-11-06T11:17:01.537Z,12.75
2022-11-06T11:19:38.046Z,12.22
2022-11-06T11:22:18.382Z,12.48
2022-11-06T11:25:01.649Z,13.37
2022-11-06T11:27:32.073Z,13.29
2022-11-06T11:30:04.382Z,13.58
2022-11-06T12:20:52.175Z,13.84
2022-11-06T12:23:27.481Z,13.14
2022-11-06T12:26:05.327Z,12.82
2022-11-06T12:28:37.253Z,12.86
2022-11-06T12:31:17.655Z,12.65
2022-11-06T12:34:05.555Z,12.56
2022-11-06T12:36:46.370Z,12.58
2022-11-06T12:39:22.341Z,12.47
2022-11-06T12:41:54.892Z,12.46
2022-11-06T12:44:22.204Z,12.26
2022-11-06T12:47:00.594Z,12.11
2022-11-06T12:50:04.030Z,12.19
2022-11-06T12:52:56.105Z,12.15
2022-11-06T12:55:31.828Z,12.13
2022-11-06T12:58:22.129Z,11.92
2022-11-06T13:01:06.083Z,11.92
2022-11-06T13:04:13.596Z,11.97
2022-11-06T13:07:15.617Z,11.95
2022-11-06T13:10:33.237Z,11.85
2022-11-06T13:13:25.751Z,11.72
2022-11-06T13:16:03.143Z,11.65
2022-11-06T13:18:35.937Z,11.82
2022-11-06T13:21:14.484Z,11.78
2022-11-06T13:23:49.532Z,11.64
2022-11-06T13:26:29.331Z,11.79
2022-11-06T13:29:02.557Z,11.73
2022-11-06T13:31:40.018Z,11.83
2022-11-06T13:34:17.066Z,11.82
2022-11-06T13:36:45.499Z,11.84
2022-11-06T13:39:22.299Z,11.80
2022-11-06T13:41:49.045Z,11.74
2022-11-06T13:44:17.620Z,11.83
2022-11-06T13:46:58.491Z,11.73
2022-11-06T13:49:37.778Z,11.60
2022-11-06T13:52:16.798Z,11.57
2022-11-06T13:55:07.470Z,11.70
2022-11-06T13:58:20.133Z,11.74
2022-11-06T14:01:11.183Z,11.66
2022-11-06T14:04:23.697Z,11.55
2022-11-06T14:06:55.216Z,11.55
2022-11-06T14:09:27.787Z,11.48
2022-11-06T14:12:02.334Z,11.46
2022-11-06T14:14:37.642Z,11.36
2022-11-06T14:17:20.101Z,11.37
2022-11-06T14:20:05.244Z,11.33
2022-11-06T14:22:47.582Z,11.25
2022-11-06T14:25:59.149Z,11.35
2022-11-06T14:28:35.063Z,11.44
2022-11-06T14:31:23.736Z,11.35
2022-11-06T14:34:02.007Z,11.34
2022-11-06T14:36:35.876Z,11.19
2022-11-06T14:39:13.276Z,11.18
2022-11-06T14:42:01.936Z,11.13
2022-11-06T14:44:46.140Z,11.04
2022-11-06T14:47:31.617Z,11.00
2022-11-06T14:50:25.819Z,10.86
2022-11-06T14:52:59.159Z,10.77
2022-11-06T14:55:31.764Z,10.83
2022-11-06T14:58:14.617Z,10.71
2022-11-06T15:00:52.532Z,10.67
2022-11-06T15:03:37.758Z,10.74
2022-11-06T15:06:34.364Z,10.73
2022-11-06T15:09:05.598Z,10.66
2022-11-06T15:11:58.014Z,10.59
2022-11-06T15:14:55.557Z,10.60
2022-11-06T15:17:35.822Z,10.55
2022-11-06T15:20:29.490Z,10.46
2022-11-06T15:23:07.047Z,10.46
2022-11-06T15:25:37.182Z,10.40
2022-11-06T15:28:11.394Z,10.26
2022-11-06T15:30:49.904Z,10.26
2022-11-06T15:33:28.972Z,10.18
2022-11-06T15:36:04.436Z,10.12
2022-11-06T15:38:38.915Z,10.08
2022-11-06T15:42:10.714Z,9.94
2022-11-06T15:45:20.030Z,9.91
2022-11-06T15:48:00.348Z,9.79
2022-11-06T15:50:35.733Z,9.66
2022-11-06T15:53:22.180Z,9.57
2022-11-06T15:55:56.824Z,9.49
2022-11-06T15:58:34.894Z,9.46
2022-11-06T16:01:07.637Z,9.38
2022-11-06T16:04:15.559Z,9.34
2022-11-06T16:06:47.438Z,9.32
2022-11-06T16:09:19.932Z,9.24
2022-11-06T16:11:51.069Z,9.22
2022-11-06T16:14:19.094Z,9.19
2022-11-06T16:16:48.793Z,9.27
2022-11-06T16:19:30.510Z,9.18
2022-11-06T16:22:05.256Z,9.11
2022-11-06T16:24:43.486Z,9.05
2022-11-06T16:27:12.976Z,9.05
2022-11-06T16:29:58.790Z,8.94
2022-11-06T16:32:40.954Z,8.99
2022-11-06T16:35:30.489Z,8.99
2022-11-06T16:38:42.895Z,8.98
2022-11-06T16:41:15.729Z,8.93
2022-11-06T16:43:43.657Z,8.93
2022-11-06T16:46:12.156Z,8.94
2022-11-06T16:48:40.448Z,8.86
2022-11-06T16:51:33.063Z,8.92
2022-11-06T16:54:02.794Z,8.90
2022-11-06T16:56:36.386Z,8.93
2022-11-06T16:59:08.986Z,8.88
2022-11-06T17:01:42.854Z,8.97
2022-11-06T17:04:20.883Z,8.97
2022-11-06T17:10:23.210Z,8.90
2022-11-06T17:13:14.462Z,8.94
2022-11-06T17:15:52.795Z,9.02
2022-11-06T17:21:29.977Z,9.01
2022-11-06T17:24:31.286Z,9.02
2022-11-06T17:26:55.344Z,8.95
2022-11-06T17:29:26.661Z,9.03
2022-11-06T17:31:54.055Z,9.09
2022-11-06T17:34:23.585Z,9.05
2022-11-06T17:36:50.621Z,9.05
2022-11-06T17:39:17.672Z,9.04
2022-11-06T17:41:44.923Z,9.07
2022-11-06T17:44:14.672Z,9.09
2022-11-06T17:46:47.519Z,9.18
2022-11-06T17:49:18.077Z,9.18
2022-11-06T17:51:46.361Z,9.20
2022-11-06T17:54:15.490Z,9.27
2022-11-06T22:23:05.689Z,10.40
2022-11-06T22:25:32.944Z,10.42
2022-11-06T22:27:59.940Z,10.19
2022-11-06T22:30:30.415Z,9.73
2022-11-06T22:32:58.735Z,9.53
2022-11-06T22:35:28.550Z,9.45
2022-11-06T22:37:55.613Z,9.39
2022-11-06T22:40:24.070Z,9.43
2022-11-06T22:42:51.752Z,9.37
2022-11-06T22:45:18.978Z,9.42
2022-11-06T22:47:48.807Z,9.32
2022-11-06T22:50:19.112Z,9.40
2022-11-06T22:52:46.343Z,9.44
2022-11-06T22:55:13.657Z,9.33
2022-11-06T22:57:42.230Z,9.33
2022-11-06T23:00:11.107Z,9.44
2022-11-06T23:02:38.021Z,9.51
2022-11-06T23:05:06.159Z,9.56
2022-11-06T23:07:32.970Z,9.66
2022-11-06T23:09:59.756Z,9.70
2022-11-06T23:12:26.582Z,9.79
2022-11-06T23:14:54.923Z,9.84
2022-11-06T23:17:21.788Z,9.89
2022-11-06T23:19:48.722Z,9.48
2022-11-06T23:22:15.825Z,9.34
2022-11-06T23:24:44.526Z,9.14
2022-11-06T23:27:11.867Z,9.09
2022-11-06T23:29:39.740Z,8.89
2022-11-06T23:32:08.141Z,8.90
2022-11-06T23:34:35.705Z,8.80
2022-11-06T23:37:03.401Z,8.81
2022-11-06T23:39:30.573Z,8.88
2022-11-06T23:41:57.983Z,8.98
2022-11-06T23:44:25.565Z,9.06
2022-11-06T23:46:53.983Z,9.07
2022-11-06T23:49:24.330Z,9.13
2022-11-06T23:51:51.743Z,9.23
2022-11-06T23:54:19.236Z,9.30
2022-11-06T23:56:46.912Z,9.38
2022-11-06T23:59:20.555Z,9.40
